Time;durP1;ratioP1;P1;durP2;ratioP2;P2;SDS_P1;SDS_P2;PMS_P1;PMS_P2;Temp;Humidity;BMP_temperature;BMP_pressure;BME280_temperature;BME280_humidity;BME280_pressure;Samples;Min_cycle;Max_cycle;Signal;HPM_P1;HPM_P2
2023/09/25 00:01:32;;;;;;;12.00;11.70;;;12.20;99.90;;;;;;5070311;28;20451;-67
2023/09/25 00:03:59;;;;;;;11.80;11.50;;;12.20;99.90;;;;;;5068704;28;20461;-67
2023/09/25 00:06:26;;;;;;;12.17;11.87;;;12.20;99.90;;;;;;5070864;28;20486;-65
2023/09/25 00:08:56;;;;;;;11.63;11.33;;;12.20;99.90;;;;;;5063056;28;20493;-67
2023/09/25 00:11:23;;;;;;;12.17;11.87;;;12.30;99.90;;;;;;5054278;28;20518;-67
2023/09/25 00:13:50;;;;;;;11.90;11.60;;;12.30;99.90;;;;;;5057370;28;20470;-67
2023/09/25 00:16:17;;;;;;;11.83;11.53;;;12.30;99.90;;;;;;5080747;28;20932;-69
2023/09/25 00:18:45;;;;;;;11.97;11.67;;;12.40;99.90;;;;;;5072082;28;20458;-68
2023/09/25 00:21:11;;;;;;;11.90;11.60;;;12.50;99.90;;;;;;5065937;28;20715;-66
2023/09/25 00:23:39;;;;;;;12.27;11.97;;;12.40;99.90;;;;;;5061010;28;20466;-67
2023/09/25 00:26:08;;;;;;;12.03;11.73;;;12.30;99.90;;;;;;5070288;28;20841;-66
2023/09/25 00:28:35;;;;;;;11.40;11.10;;;12.20;99.90;;;;;;5063268;28;20570;-66
2023/09/25 00:31:03;;;;;;;12.30;12.00;;;12.10;99.90;;;;;;5057517;28;20876;-67
2023/09/25 00:33:30;;;;;;;13.30;12.90;;;11.90;99.90;;;;;;5066972;28;20467;-65
2023/09/25 00:35:58;;;;;;;12.63;12.27;;;11.80;99.90;;;;;;5061749;28;20494;-66
2023/09/25 00:38:25;;;;;;;12.10;11.80;;;11.70;99.90;;;;;;5063413;28;20464;-68
2023/09/25 00:40:52;;;;;;;12.27;11.97;;;11.60;99.90;;;;;;5051576;28;20452;-66
2023/09/25 00:43:20;;;;;;;12.47;12.17;;;11.50;99.90;;;;;;5064118;28;20450;-68
2023/09/25 00:45:49;;;;;;;12.53;12.23;;;11.50;99.90;;;;;;5065742;28;20942;-66
2023/09/25 00:48:25;;;;;;;12.30;12.00;;;11.40;99.90;;;;;;5060854;28;20458;-68
2023/09/25 00:50:52;;;;;;;12.33;12.03;;;11.40;99.90;;;;;;5057755;28;20473;-68
2023/09/25 00:53:20;;;;;;;12.40;12.10;;;11.40;99.90;;;;;;5069584;28;20466;-68
2023/09/25 00:55:49;;;;;;;12.20;11.90;;;11.30;99.90;;;;;;5070427;28;20482;-67
2023/09/25 00:58:16;;;;;;;13.07;12.67;;;11.30;99.90;;;;;;5054026;28;20502;-69
2023/09/25 01:00:46;;;;;;;12.30;12.00;;;11.20;99.90;;;;;;5065975;28;20462;-66
2023/09/25 01:03:13;;;;;;;11.73;11.43;;;11.20;99.90;;;;;;5061398;28;20467;-66
2023/09/25 01:05:40;;;;;;;12.23;11.93;;;11.10;99.90;;;;;;5069663;28;20455;-70
2023/09/25 01:08:10;;;;;;;12.17;11.87;;;11.00;99.90;;;;;;5063576;28;20541;-66
2023/09/25 01:10:38;;;;;;;12.10;11.80;;;10.90;99.90;;;;;;5061217;28;20495;-69
2023/09/25 01:13:05;;;;;;;11.90;11.60;;;11.00;99.90;;;;;;5070163;28;20451;-68
2023/09/25 01:15:33;;;;;;;11.97;11.67;;;11.00;99.90;;;;;;5065028;28;20520;-67
2023/09/25 01:18:03;;;;;;;11.93;11.63;;;11.00;99.90;;;;;;5055396;28;20470;-67
2023/09/25 01:20:29;;;;;;;11.60;11.30;;;11.00;99.90;;;;;;5060758;28;20483;-66
2023/09/25 01:22:58;;;;;;;11.57;11.27;;;11.00;99.90;;;;;;5052810;28;20466;-70
2023/09/25 01:25:25;;;;;;;11.20;10.90;;;11.00;99.90;;;;;;5066427;28;20533;-69
2023/09/25 01:27:52;;;;;;;11.50;11.20;;;10.90;99.90;;;;;;5062333;28;21036;-68
2023/09/25 01:30:20;;;;;;;10.47;10.27;;;11.00;99.90;;;;;;5069610;28;20490;-70
2023/09/25 01:32:51;;;;;;;11.03;10.73;;;10.90;99.90;;;;;;5069123;28;20471;-68
2023/09/25 01:35:19;;;;;;;11.07;10.77;;;10.80;99.90;;;;;;5053267;28;20483;-68
2023/09/25 01:37:48;;;;;;;11.23;10.93;;;10.80;99.90;;;;;;5056117;28;20829;-66
2023/09/25 01:40:17;;;;;;;10.97;10.67;;;10.80;99.90;;;;;;5063303;28;21141;-67
2023/09/25 01:42:45;;;;;;;10.30;10.10;;;10.80;99.90;;;;;;5061815;28;20855;-69
2023/09/25 01:45:16;;;;;;;10.20;10.00;;;10.80;99.90;;;;;;5065296;28;20466;-65
2023/09/25 01:47:48;;;;;;;9.67;9.47;;;10.80;99.90;;;;;;5055956;28;21460;-67
2023/09/25 01:50:16;;;;;;;9.67;9.47;;;10.80;99.90;;;;;;5061804;28;20846;-67
2023/09/25 01:52:43;;;;;;;9.80;9.60;;;10.80;99.90;;;;;;5053071;28;20464;-67
2023/09/25 01:55:11;;;;;;;9.63;9.43;;;10.80;99.90;;;;;;5065343;28;20455;-70
2023/09/25 01:57:40;;;;;;;9.83;9.63;;;10.80;99.90;;;;;;5065449;28;20466;-69
2023/09/25 02:00:10;;;;;;;10.27;10.07;;;10.80;99.90;;;;;;5055370;28;20466;-67
2023/09/25 02:02:37;;;;;;;9.97;9.77;;;10.70;99.90;;;;;;5063907;28;20464;-67
2023/09/25 02:05:05;;;;;;;10.40;10.20;;;10.70;99.90;;;;;;5055908;28;20642;-67
2023/09/25 02:07:32;;;;;;;10.17;9.97;;;10.60;99.90;;;;;;5057002;28;20485;-67
2023/09/25 02:10:01;;;;;;;10.13;9.93;;;10.70;99.90;;;;;;5061063;28;20589;-69
2023/09/25 02:12:28;;;;;;;10.10;9.90;;;10.70;99.90;;;;;;5066603;28;20566;-68
2023/09/25 02:14:59;;;;;;;9.90;9.70;;;10.70;99.90;;;;;;5058450;28;20969;-67
2023/09/25 02:17:29;;;;;;;8.90;8.80;;;10.70;99.90;;;;;;5054767;28;20828;-67
2023/09/25 02:19:56;;;;;;;9.70;9.50;;;10.60;99.90;;;;;;5058145;28;20464;-69
2023/09/25 02:22:24;;;;;;;9.57;9.37;;;10.60;99.90;;;;;;5064747;28;20463;-67
2023/09/25 02:24:51;;;;;;;9.90;9.70;;;10.60;99.90;;;;;;5068225;28;21009;-67
2023/09/25 02:27:18;;;;;;;10.03;9.83;;;10.70;99.90;;;;;;5065170;28;21017;-69
2023/09/25 02:29:45;;;;;;;9.83;9.63;;;10.70;99.90;;;;;;5067262;28;20482;-69
2023/09/25 02:32:14;;;;;;;9.83;9.63;;;10.70;99.90;;;;;;5057985;28;20468;-67
2023/09/25 02:34:41;;;;;;;8.87;8.73;;;10.80;99.90;;;;;;5064399;28;20498;-67
2023/09/25 02:37:07;;;;;;;8.00;7.90;;;10.90;99.90;;;;;;5056735;28;20494;-67
2023/09/25 02:39:35;;;;;;;8.70;8.60;;;10.90;99.90;;;;;;5058334;28;20475;-69
2023/09/25 02:42:03;;;;;;;8.23;8.13;;;10.90;99.90;;;;;;5062091;28;20464;-68
2023/09/25 02:44:30;;;;;;;8.40;8.30;;;10.90;99.90;;;;;;5065007;28;20548;-66
2023/09/25 02:46:57;;;;;;;8.33;8.23;;;10.90;99.90;;;;;;5060237;28;20749;-68
2023/09/25 02:49:26;;;;;;;8.70;8.60;;;10.80;99.90;;;;;;5059362;28;20476;-67
2023/09/25 02:51:52;;;;;;;9.17;8.97;;;10.70;99.90;;;;;;5059728;28;20462;-67
2023/09/25 02:54:20;;;;;;;9.60;9.40;;;10.70;99.90;;;;;;5060110;28;20914;-67
2023/09/25 02:56:48;;;;;;;9.00;8.80;;;10.70;99.90;;;;;;5058710;28;21031;-68
2023/09/25 02:59:15;;;;;;;9.00;8.83;;;10.80;99.90;;;;;;5061900;28;20868;-67
2023/09/25 03:01:42;;;;;;;9.07;8.87;;;10.70;99.90;;;;;;5054837;28;20470;-69
2023/09/25 03:04:10;;;;;;;9.20;9.00;;;10.70;99.90;;;;;;5064355;28;20553;-68
2023/09/25 03:06:39;;;;;;;9.20;9.00;;;10.70;99.90;;;;;;5062740;28;20537;-67
2023/09/25 03:09:06;;;;;;;9.27;9.07;;;10.80;99.90;;;;;;5054500;28;20459;-67
2023/09/25 03:11:34;;;;;;;9.10;8.90;;;10.80;99.90;;;;;;5057049;28;20984;-66
2023/09/25 03:14:01;;;;;;;8.30;8.20;;;10.80;99.90;;;;;;5063621;28;20467;-67
2023/09/25 03:16:27;;;;;;;8.23;8.13;;;10.80;99.90;;;;;;5057749;28;20455;-67
2023/09/25 03:18:55;;;;;;;7.63;7.53;;;10.80;99.90;;;;;;5066334;28;20706;-68
2023/09/25 03:21:22;;;;;;;7.47;7.37;;;10.90;99.90;;;;;;5067054;28;21005;-67
2023/09/25 03:23:50;;;;;;;7.70;7.60;;;10.80;99.90;;;;;;5061692;28;20847;-67
2023/09/25 03:26:19;;;;;;;7.73;7.63;;;10.80;99.90;;;;;;5046694;28;20459;-68
2023/09/25 03:28:50;;;;;;;7.60;7.50;;;10.70;99.90;;;;;;5061125;28;21004;-67
2023/09/25 03:31:17;;;;;;;7.77;7.67;;;10.70;99.90;;;;;;5063422;28;20470;-70
2023/09/25 03:33:46;;;;;;;8.27;8.17;;;10.70;99.90;;;;;;5058385;28;20952;-66
2023/09/25 03:36:13;;;;;;;8.00;7.90;;;10.70;99.90;;;;;;5057226;28;20515;-67
2023/09/25 03:38:40;;;;;;;8.80;8.70;;;10.80;99.90;;;;;;5061979;28;21008;-68
2023/09/25 03:41:08;;;;;;;8.13;8.03;;;10.80;99.90;;;;;;5058042;28;20474;-67
2023/09/25 03:43:35;;;;;;;8.40;8.30;;;10.80;99.90;;;;;;5055477;28;20459;-67
2023/09/25 03:46:03;;;;;;;8.97;8.77;;;10.90;99.90;;;;;;5065575;28;20455;-67
2023/09/25 03:48:30;;;;;;;9.23;9.03;;;10.90;99.90;;;;;;5063505;28;20487;-69
2023/09/25 03:50:57;;;;;;;9.40;9.20;;;11.00;99.90;;;;;;5057159;28;20965;-67
2023/09/25 03:53:24;;;;;;;8.80;8.70;;;11.00;99.90;;;;;;5064242;28;20575;-69
2023/09/25 03:55:51;;;;;;;9.10;8.90;;;11.00;99.90;;;;;;5061396;28;20481;-69
2023/09/25 03:58:21;;;;;;;9.30;9.10;;;11.00;99.90;;;;;;5067086;28;20471;-69
2023/09/25 04:00:48;;;;;;;9.33;9.13;;;11.00;99.90;;;;;;5049265;28;20463;-67
2023/09/25 04:03:15;;;;;;;9.73;9.53;;;10.90;99.90;;;;;;5063480;28;20795;-67
2023/09/25 04:05:42;;;;;;;9.80;9.60;;;10.90;99.90;;;;;;5065875;28;20932;-69
2023/09/25 04:08:10;;;;;;;9.57;9.37;;;11.00;99.90;;;;;;5061004;28;20490;-69
2023/09/25 04:10:37;;;;;;;10.07;9.87;;;11.00;99.90;;;;;;5059853;28;20521;-69
2023/09/25 04:13:07;;;;;;;10.20;10.00;;;10.90;99.90;;;;;;5059608;28;20930;-67
2023/09/25 04:15:36;;;;;;;9.90;9.70;;;10.90;99.90;;;;;;5064927;28;20493;-69
2023/09/25 04:18:06;;;;;;;10.37;10.17;;;10.90;99.90;;;;;;5070287;28;20465;-68
2023/09/25 04:20:33;;;;;;;10.13;9.93;;;10.90;99.90;;;;;;5070754;28;20545;-68
2023/09/25 04:23:00;;;;;;;10.40;10.20;;;10.90;99.90;;;;;;5055746;28;21156;-68
2023/09/25 04:25:28;;;;;;;10.13;9.93;;;10.90;99.90;;;;;;5059188;28;20644;-66
2023/09/25 04:27:56;;;;;;;10.30;10.10;;;10.90;99.90;;;;;;5070257;28;21032;-67
2023/09/25 04:30:25;;;;;;;10.40;10.20;;;11.00;99.90;;;;;;5070172;28;20487;-70
2023/09/25 04:32:54;;;;;;;10.30;10.10;;;11.00;99.90;;;;;;5064472;28;20463;-69
2023/09/25 04:35:24;;;;;;;10.70;10.50;;;11.10;99.90;;;;;;5070164;28;20910;-69
2023/09/25 04:37:51;;;;;;;10.97;10.67;;;11.10;99.90;;;;;;5069262;28;20458;-69
2023/09/25 04:40:23;;;;;;;11.20;10.90;;;11.10;99.90;;;;;;5063279;28;20792;-69
2023/09/25 04:42:51;;;;;;;10.60;10.40;;;11.20;99.90;;;;;;5052393;28;20525;-67
2023/09/25 04:45:19;;;;;;;10.40;10.20;;;11.20;99.90;;;;;;5068233;28;20462;-68
2023/09/25 04:47:48;;;;;;;10.47;10.27;;;11.10;99.90;;;;;;5054655;28;20538;-67
2023/09/25 04:50:16;;;;;;;11.00;10.70;;;11.10;99.90;;;;;;5059643;28;20801;-70
2023/09/25 04:52:45;;;;;;;10.67;10.47;;;11.10;99.90;;;;;;5065719;28;20466;-67
2023/09/25 04:55:12;;;;;;;10.37;10.17;;;11.10;99.90;;;;;;5059501;28;20820;-67
2023/09/25 04:57:41;;;;;;;10.33;10.13;;;11.00;99.90;;;;;;5056663;28;20455;-67
2023/09/25 05:00:15;;;;;;;10.50;10.30;;;11.00;99.90;;;;;;5061094;28;20557;-68
2023/09/25 05:02:45;;;;;;;10.53;10.33;;;11.00;99.90;;;;;;5068183;28;20432;-67
2023/09/25 05:05:12;;;;;;;10.30;10.10;;;11.10;99.90;;;;;;5063125;28;20498;-67
2023/09/25 05:07:42;;;;;;;10.47;10.27;;;11.00;99.90;;;;;;5057681;28;20467;-69
2023/09/25 05:10:10;;;;;;;10.27;10.07;;;11.00;99.90;;;;;;5068277;28;20517;-67
2023/09/25 05:12:39;;;;;;;9.90;9.70;;;11.00;99.90;;;;;;5059520;28;20519;-67
2023/09/25 05:15:08;;;;;;;9.50;9.30;;;11.00;99.90;;;;;;5060136;28;20478;-67
2023/09/25 05:17:36;;;;;;;9.77;9.57;;;11.00;99.90;;;;;;5056466;28;21035;-69
2023/09/25 05:20:08;;;;;;;10.23;10.03;;;11.00;99.90;;;;;;5067050;28;21270;-66
2023/09/25 05:22:37;;;;;;;9.93;9.73;;;11.10;99.90;;;;;;5058566;28;20470;-67
2023/09/25 05:25:07;;;;;;;10.07;9.87;;;11.00;99.90;;;;;;5065603;28;20455;-68
2023/09/25 05:27:34;;;;;;;10.67;10.47;;;11.00;99.90;;;;;;5063640;28;20489;-67
2023/09/25 05:30:01;;;;;;;10.53;10.33;;;11.00;99.90;;;;;;5081679;28;20856;-66
2023/09/25 05:32:28;;;;;;;10.80;10.60;;;11.00;99.90;;;;;;5075882;28;20470;-67
2023/09/25 05:34:55;;;;;;;11.03;10.73;;;11.00;99.90;;;;;;5073469;28;20561;-67
2023/09/25 05:37:22;;;;;;;11.00;10.70;;;11.00;99.90;;;;;;5074200;28;20812;-69
2023/09/25 05:39:49;;;;;;;11.13;10.83;;;11.00;99.90;;;;;;5081266;28;20462;-66
2023/09/25 05:42:17;;;;;;;11.03;10.77;;;11.00;99.90;;;;;;5088890;28;20457;-67
2023/09/25 05:44:45;;;;;;;10.80;10.60;;;11.00;99.90;;;;;;5078178;28;20528;-69
2023/09/25 05:47:12;;;;;;;11.10;10.80;;;11.00;99.90;;;;;;5074060;28;20464;-66
2023/09/25 05:49:40;;;;;;;10.90;10.67;;;11.00;99.90;;;;;;5074927;28;20473;-67
2023/09/25 05:52:07;;;;;;;11.00;10.70;;;11.00;99.90;;;;;;5072805;28;20550;-67
2023/09/25 05:54:34;;;;;;;10.90;10.70;;;11.00;99.90;;;;;;5073377;28;20468;-67
2023/09/25 05:57:05;;;;;;;10.70;10.50;;;11.10;99.90;;;;;;5082626;28;20458;-68
2023/09/25 05:59:34;;;;;;;10.47;10.27;;;11.10;99.90;;;;;;5081010;28;20497;-68
2023/09/25 06:02:02;;;;;;;10.60;10.40;;;11.10;99.90;;;;;;5085131;28;20471;-68
2023/09/25 06:04:28;;;;;;;10.97;10.67;;;11.20;99.90;;;;;;5080475;28;20553;-68
2023/09/25 06:06:56;;;;;;;11.10;10.80;;;11.20;99.90;;;;;;5077899;28;20804;-69
2023/09/25 06:09:23;;;;;;;10.73;10.53;;;11.30;99.90;;;;;;5079496;28;20811;-70
2023/09/25 06:11:51;;;;;;;11.60;11.30;;;11.30;99.90;;;;;;5077684;28;20459;-69
2023/09/25 06:14:18;;;;;;;11.73;11.43;;;11.40;99.90;;;;;;5079601;28;20828;-69
2023/09/25 06:16:50;;;;;;;11.47;11.17;;;11.40;99.90;;;;;;5073329;28;20505;-70
2023/09/25 06:19:18;;;;;;;10.90;10.63;;;11.50;99.90;;;;;;5076439;28;20498;-69
2023/09/25 06:21:44;;;;;;;11.43;11.13;;;11.60;99.90;;;;;;5072517;28;21104;-72
2023/09/25 06:24:12;;;;;;;11.70;11.40;;;11.70;99.90;;;;;;5079470;28;20462;-69
2023/09/25 06:26:41;;;;;;;11.30;11.00;;;11.80;99.90;;;;;;5081776;28;20470;-69
2023/09/25 06:29:09;;;;;;;11.90;11.60;;;11.90;99.90;;;;;;5071978;28;21017;-71
2023/09/25 06:31:37;;;;;;;11.73;11.43;;;12.00;99.90;;;;;;5054333;28;20821;-69
2023/09/25 06:34:07;;;;;;;12.73;12.33;;;12.00;99.90;;;;;;5056465;28;20479;-71
2023/09/25 06:36:34;;;;;;;12.30;12.00;;;12.20;99.90;;;;;;5064108;28;20826;-66
2023/09/25 06:39:02;;;;;;;11.97;11.67;;;12.20;99.90;;;;;;5050333;28;21398;-67
2023/09/25 06:41:29;;;;;;;12.23;11.93;;;12.30;99.90;;;;;;5049478;28;20470;-70
2023/09/25 06:43:56;;;;;;;12.57;12.23;;;12.30;99.90;;;;;;5051533;28;20487;-66
2023/09/25 06:46:23;;;;;;;12.47;12.17;;;12.40;99.90;;;;;;5048691;28;20460;-69
2023/09/25 06:48:50;;;;;;;12.20;11.90;;;12.50;99.90;;;;;;5050909;28;20831;-69
2023/09/25 06:51:20;;;;;;;12.73;12.33;;;12.70;99.90;;;;;;5056972;28;20966;-69
2023/09/25 06:53:47;;;;;;;13.17;12.77;;;12.70;99.90;;;;;;5063418;28;21027;-67
2023/09/25 06:56:14;;;;;;;13.00;12.60;;;12.80;99.90;;;;;;5054039;28;20904;-67
2023/09/25 06:58:42;;;;;;;13.43;13.03;;;12.90;99.90;;;;;;5057493;28;21110;-67
2023/09/25 07:01:09;;;;;;;13.53;13.13;;;13.00;99.90;;;;;;5056653;28;20462;-66
2023/09/25 07:03:36;;;;;;;13.10;12.70;;;13.10;99.90;;;;;;5053607;28;20675;-68
2023/09/25 07:06:05;;;;;;;12.80;12.43;;;13.10;99.90;;;;;;5064732;28;20451;-69
2023/09/25 07:08:33;;;;;;;12.97;12.57;;;13.20;99.90;;;;;;5051186;28;20474;-68
2023/09/25 07:11:01;;;;;;;13.20;12.80;;;13.20;99.90;;;;;;5054818;28;20459;-68
2023/09/25 07:13:28;;;;;;;13.20;12.80;;;13.30;99.90;;;;;;5047945;28;20954;-69
2023/09/25 07:16:04;;;;;;;13.90;13.50;;;13.40;99.90;;;;;;5049709;28;20455;-69
2023/09/25 07:18:31;;;;;;;14.43;13.93;;;13.40;99.90;;;;;;5052924;28;20497;-68
2023/09/25 07:20:58;;;;;;;14.47;13.97;;;13.60;99.90;;;;;;5054907;28;20459;-67
2023/09/25 07:23:26;;;;;;;14.47;13.97;;;13.70;99.90;;;;;;5059114;28;20464;-68
2023/09/25 07:26:02;;;;;;;14.20;13.70;;;13.70;99.90;;;;;;5055885;28;20867;-69
2023/09/25 07:28:28;;;;;;;13.90;13.50;;;13.80;99.90;;;;;;5056048;28;20534;-70
2023/09/25 07:30:55;;;;;;;13.57;13.17;;;13.90;99.90;;;;;;5080248;28;20515;-69
2023/09/25 07:33:23;;;;;;;13.57;13.17;;;13.90;99.90;;;;;;5081954;28;20454;-66
2023/09/25 07:35:50;;;;;;;13.83;13.43;;;14.10;99.90;;;;;;5069943;28;20501;-66
2023/09/25 07:38:17;;;;;;;13.60;13.20;;;14.20;99.90;;;;;;5078361;28;20811;-66
2023/09/25 07:40:44;;;;;;;14.33;13.83;;;14.20;99.90;;;;;;5078849;28;20447;-66
2023/09/25 07:43:19;;;;;;;14.10;13.70;;;14.40;99.90;;;;;;5082815;28;20989;-67
2023/09/25 07:45:47;;;;;;;13.90;13.50;;;14.50;99.90;;;;;;5074329;28;21044;-72
2023/09/25 07:48:14;;;;;;;14.03;13.63;;;14.70;99.90;;;;;;5071095;28;20977;-69
2023/09/25 07:50:41;;;;;;;14.00;13.60;;;14.70;99.90;;;;;;5072372;28;20470;-68
2023/09/25 07:53:07;;;;;;;13.90;13.50;;;14.80;99.90;;;;;;5089138;28;20546;-66
2023/09/25 07:55:35;;;;;;;13.93;13.53;;;14.90;99.90;;;;;;5083096;28;20984;-66
2023/09/25 07:58:03;;;;;;;14.23;13.83;;;15.00;99.90;;;;;;5082162;28;20458;-66
2023/09/25 08:00:37;;;;;;;14.20;13.80;;;15.10;99.90;;;;;;5089540;28;20449;-66
2023/09/25 08:03:05;;;;;;;14.47;14.00;;;15.30;99.90;;;;;;5077322;28;20458;-67
2023/09/25 08:05:32;;;;;;;14.90;14.40;;;15.40;99.90;;;;;;5089570;28;20953;-65
2023/09/25 08:07:59;;;;;;;14.10;13.70;;;15.60;99.90;;;;;;5088891;28;21041;-66
2023/09/25 08:10:26;;;;;;;13.80;13.40;;;15.60;99.90;;;;;;5078348;28;20464;-67
2023/09/25 08:12:53;;;;;;;13.97;13.57;;;15.90;99.90;;;;;;5081261;28;21719;-65
2023/09/25 08:15:20;;;;;;;14.10;13.70;;;15.90;99.90;;;;;;5081074;28;20458;-66
2023/09/25 08:17:48;;;;;;;14.17;13.77;;;16.00;99.90;;;;;;5087743;28;20453;-68
2023/09/25 08:20:20;;;;;;;14.73;14.23;;;16.10;99.90;;;;;;5082852;28;20987;-67
2023/09/25 08:22:47;;;;;;;14.97;14.47;;;16.20;99.90;;;;;;5081971;28;20821;-66
2023/09/25 08:25:14;;;;;;;14.40;13.90;;;16.40;99.90;;;;;;5070082;28;20557;-66
2023/09/25 08:27:42;;;;;;;14.77;14.27;;;16.50;99.90;;;;;;5083769;28;20461;-68
2023/09/25 08:30:10;;;;;;;15.00;14.50;;;16.60;99.90;;;;;;5077635;28;20573;-67
2023/09/25 08:32:38;;;;;;;14.77;14.27;;;16.80;99.90;;;;;;5088196;28;20458;-66
2023/09/25 08:35:09;;;;;;;15.00;14.50;;;17.00;99.90;;;;;;5078946;28;21057;-66
2023/09/25 08:37:38;;;;;;;14.90;14.40;;;17.20;99.90;;;;;;5080214;28;20465;-67
2023/09/25 08:40:07;;;;;;;14.70;14.20;;;17.30;99.90;;;;;;5076334;28;20517;-66
2023/09/25 08:42:35;;;;;;;14.20;13.80;;;17.40;99.90;;;;;;5088016;28;20469;-66
2023/09/25 08:45:04;;;;;;;15.13;14.63;;;17.50;99.90;;;;;;5076867;28;20999;-68
2023/09/25 08:47:32;;;;;;;14.50;14.00;;;17.60;99.90;;;;;;5079101;28;20511;-66
2023/09/25 08:50:00;;;;;;;14.80;14.30;;;17.70;99.90;;;;;;5086910;28;20873;-66
2023/09/25 08:52:30;;;;;;;14.80;14.30;;;17.90;99.90;;;;;;5072252;28;20916;-65
2023/09/25 08:55:00;;;;;;;14.80;14.30;;;17.80;99.90;;;;;;5076216;28;21023;-65
2023/09/25 08:57:27;;;;;;;14.87;14.37;;;17.90;99.90;;;;;;5081780;28;20545;-66
2023/09/25 08:59:54;;;;;;;15.00;14.50;;;18.10;99.90;;;;;;5081909;28;20521;-67
2023/09/25 09:02:21;;;;;;;15.20;14.70;;;18.00;99.90;;;;;;5081086;28;20537;-67
2023/09/25 09:04:48;;;;;;;15.27;14.77;;;18.00;99.90;;;;;;5071799;28;20550;-66
2023/09/25 09:07:15;;;;;;;15.20;14.70;;;18.10;99.90;;;;;;5084176;28;20454;-67
2023/09/25 09:09:43;;;;;;;15.23;14.73;;;18.30;99.90;;;;;;5080497;28;20467;-66
2023/09/25 09:12:11;;;;;;;15.03;14.53;;;18.50;99.90;;;;;;5079027;28;20463;-67
2023/09/25 09:14:41;;;;;;;15.47;14.97;;;18.60;99.90;;;;;;5079516;28;20875;-67
2023/09/25 09:17:09;;;;;;;14.77;14.27;;;18.80;99.90;;;;;;5085755;28;20807;-67
2023/09/25 09:19:38;;;;;;;14.70;14.20;;;18.80;99.90;;;;;;5084677;28;20504;-68
2023/09/25 09:22:08;;;;;;;14.80;14.30;;;18.90;99.90;;;;;;5087296;28;20566;-66
2023/09/25 09:24:38;;;;;;;15.27;14.77;;;18.90;99.90;;;;;;5077171;28;20550;-66
2023/09/25 09:27:07;;;;;;;15.23;14.73;;;19.10;99.90;;;;;;5084002;28;20446;-66
2023/09/25 09:29:37;;;;;;;14.80;14.30;;;19.00;99.90;;;;;;5072084;28;20621;-68
2023/09/25 09:32:05;;;;;;;15.10;14.60;;;19.30;99.90;;;;;;5062615;28;20454;-65
2023/09/25 09:34:34;;;;;;;15.27;14.77;;;19.60;99.90;;;;;;5058681;28;20480;-67
2023/09/25 09:37:01;;;;;;;15.00;14.50;;;20.00;99.90;;;;;;5077367;28;21030;-66
2023/09/25 09:39:34;;;;;;;15.10;14.60;;;20.40;99.90;;;;;;5083454;28;20484;-66
2023/09/25 09:42:03;;;;;;;15.23;14.73;;;20.80;99.90;;;;;;5080307;28;20955;-67
2023/09/25 09:44:32;;;;;;;15.40;14.90;;;21.30;99.90;;;;;;5077944;28;20465;-67
2023/09/25 09:47:03;;;;;;;15.80;15.30;;;21.70;99.90;;;;;;5084124;28;20463;-65
2023/09/25 09:49:32;;;;;;;15.60;15.10;;;21.90;99.90;;;;;;5077454;28;20457;-66
2023/09/25 09:52:01;;;;;;;15.30;14.80;;;22.20;99.90;;;;;;5086472;28;20454;-67
2023/09/25 09:54:34;;;;;;;15.03;14.53;;;22.30;99.90;;;;;;5069192;28;21300;-66
2023/09/25 09:57:02;;;;;;;15.10;14.60;;;22.70;99.90;;;;;;5071816;28;20491;-68
2023/09/25 09:59:28;;;;;;;15.50;15.00;;;23.00;99.90;;;;;;5075340;28;20517;-68
2023/09/25 10:01:59;;;;;;;15.40;14.90;;;23.00;99.90;;;;;;5077526;28;20712;-67
2023/09/25 10:04:27;;;;;;;15.03;14.53;;;23.50;99.90;;;;;;5086148;28;20458;-67
2023/09/25 10:06:59;;;;;;;15.30;14.80;;;24.00;99.90;;;;;;5062476;28;20463;-68
2023/09/25 10:09:27;;;;;;;15.13;14.63;;;24.00;99.90;;;;;;5071414;28;20469;-67
2023/09/25 10:11:55;;;;;;;14.90;14.40;;;24.00;99.90;;;;;;5081398;28;20768;-65
2023/09/25 10:14:23;;;;;;;14.67;14.20;;;24.10;99.90;;;;;;5075763;28;21092;-66
2023/09/25 10:17:03;;;;;;;15.17;14.67;;;23.90;99.90;;;;;;5074856;28;20458;-66
2023/09/25 10:19:49;;;;;;;15.03;14.53;;;24.00;99.90;;;;;;5074277;28;20500;-65
2023/09/25 10:22:20;;;;;;;15.37;14.87;;;23.80;99.90;;;;;;5078642;28;21262;-68
2023/09/25 10:24:51;;;;;;;15.10;14.60;;;24.00;99.90;;;;;;5081741;28;20454;-67
2023/09/25 10:27:19;;;;;;;15.00;14.50;;;24.20;99.90;;;;;;5086305;28;20539;-67
2023/09/25 10:30:05;;;;;;;15.60;15.10;;;24.60;99.90;;;;;;5078572;28;20970;-67
2023/09/25 10:32:34;;;;;;;15.60;15.10;;;24.70;99.90;;;;;;5079261;28;20489;-67
2023/09/25 10:35:34;;;;;;;15.87;15.37;;;24.80;99.90;;;;;;5070189;28;20851;-68
2023/09/25 10:38:10;;;;;;;15.77;15.27;;;25.10;99.90;;;;;;5072873;28;20530;-66
2023/09/25 10:40:38;;;;;;;15.60;15.10;;;25.60;99.90;;;;;;5073516;28;20482;-66
2023/09/25 10:43:05;;;;;;;15.90;15.40;;;26.00;99.90;;;;;;5083057;28;20446;-66
2023/09/25 10:45:33;;;;;;;16.10;15.60;;;25.60;99.90;;;;;;5078757;28;20943;-67
2023/09/25 10:48:02;;;;;;;15.57;15.07;;;25.70;99.90;;;;;;5085152;28;20528;-67
2023/09/25 10:50:29;;;;;;;15.70;15.20;;;25.70;99.90;;;;;;5077881;28;20469;-66
2023/09/25 10:52:56;;;;;;;15.43;14.93;;;25.90;99.90;;;;;;5066835;28;20469;-66
2023/09/25 10:55:24;;;;;;;16.90;16.30;;;25.50;99.90;;;;;;5075926;28;20791;-66
2023/09/25 10:57:51;;;;;;;15.93;15.43;;;25.90;99.90;;;;;;5082030;28;20458;-66
2023/09/25 11:00:19;;;;;;;15.77;15.27;;;26.40;99.90;;;;;;5081133;28;20937;-67
2023/09/25 11:02:47;;;;;;;15.27;14.77;;;26.60;99.90;;;;;;5085434;28;20450;-67
2023/09/25 11:05:15;;;;;;;15.93;15.43;;;26.90;99.90;;;;;;5083192;28;20462;-66
2023/09/25 11:07:43;;;;;;;15.80;15.30;;;26.90;99.90;;;;;;5074597;28;20454;-66
2023/09/25 11:10:13;;;;;;;15.20;14.70;;;27.00;99.90;;;;;;5076241;28;20546;-66
2023/09/25 11:12:40;;;;;;;15.40;14.90;;;27.10;99.90;;;;;;5070491;28;20459;-68
2023/09/25 11:15:11;;;;;;;15.43;14.93;;;27.20;99.90;;;;;;5077068;28;20454;-66
2023/09/25 11:17:38;;;;;;;15.00;14.50;;;27.00;99.90;;;;;;5074642;28;20516;-67
2023/09/25 11:20:12;;;;;;;15.50;15.00;;;27.20;99.90;;;;;;5070434;28;20473;-68
2023/09/25 11:22:41;;;;;;;14.70;14.30;;;27.50;99.90;;;;;;5077324;28;20473;-67
2023/09/25 11:25:12;;;;;;;14.50;14.10;;;27.90;99.90;;;;;;5083764;28;20450;-67
2023/09/25 11:27:50;;;;;;;15.10;14.60;;;28.80;99.90;;;;;;5086222;28;20539;-66
2023/09/25 11:30:17;;;;;;;14.90;14.40;;;28.90;98.80;;;;;;5077835;28;20554;-66
2023/09/25 11:32:44;;;;;;;15.70;15.20;;;29.00;98.30;;;;;;5073578;28;20471;-68
2023/09/25 11:35:12;;;;;;;15.03;14.53;;;29.10;97.30;;;;;;5081768;28;20486;-67
2023/09/25 11:37:55;;;;;;;14.60;14.20;;;29.60;97.10;;;;;;5072118;28;20464;-66
2023/09/25 11:40:21;;;;;;;14.73;14.33;;;30.00;96.90;;;;;;5075312;28;20584;-65
2023/09/25 11:42:48;;;;;;;14.47;14.07;;;29.90;94.40;;;;;;5077247;28;20499;-66
2023/09/25 11:45:16;;;;;;;15.20;14.70;;;30.00;94.70;;;;;;5076846;28;20459;-65
2023/09/25 11:47:43;;;;;;;15.30;14.80;;;29.90;94.40;;;;;;5079254;28;20542;-67
2023/09/25 11:50:11;;;;;;;15.37;14.87;;;30.10;94.40;;;;;;5089263;28;20610;-67
2023/09/25 11:52:38;;;;;;;15.60;15.10;;;29.80;93.30;;;;;;5083845;28;20892;-65
2023/09/25 11:55:08;;;;;;;15.97;15.47;;;29.80;92.20;;;;;;5082621;28;20474;-67
2023/09/25 11:57:35;;;;;;;15.90;15.40;;;29.70;92.00;;;;;;5083743;28;20535;-66
2023/09/25 12:00:04;;;;;;;15.80;15.30;;;29.80;92.10;;;;;;5076854;28;20490;-66
2023/09/25 12:02:31;;;;;;;15.63;15.13;;;29.60;93.20;;;;;;5086417;28;20458;-66
2023/09/25 12:04:59;;;;;;;15.77;15.27;;;29.90;91.50;;;;;;5076376;28;20470;-67
2023/09/25 12:07:26;;;;;;;15.90;15.40;;;30.10;91.50;;;;;;5088764;28;20977;-67
2023/09/25 12:09:53;;;;;;;15.40;14.90;;;30.20;89.70;;;;;;5079427;28;20477;-66
2023/09/25 12:12:21;;;;;;;15.30;14.80;;;30.60;90.10;;;;;;5074410;28;20447;-66
2023/09/25 12:14:48;;;;;;;16.17;15.67;;;31.10;89.00;;;;;;5079946;28;20630;-66
2023/09/25 12:17:16;;;;;;;15.93;15.43;;;31.70;87.30;;;;;;5082968;28;20462;-67
2023/09/25 12:19:43;;;;;;;15.80;15.30;;;31.40;83.90;;;;;;5072789;28;20486;-66
2023/09/25 12:22:10;;;;;;;15.33;14.83;;;31.30;85.40;;;;;;5074181;28;20486;-67
2023/09/25 12:24:37;;;;;;;15.27;14.77;;;31.50;84.20;;;;;;5089017;28;20462;-67
2023/09/25 12:27:03;;;;;;;14.80;14.40;;;31.50;83.70;;;;;;5079172;28;20450;-67
2023/09/25 12:29:31;;;;;;;15.50;15.00;;;32.00;83.70;;;;;;5085892;28;21083;-67
2023/09/25 12:31:59;;;;;;;15.40;14.90;;;32.20;81.80;;;;;;5081997;28;20649;-68
2023/09/25 12:34:26;;;;;;;15.70;15.20;;;32.40;80.10;;;;;;5079616;28;20485;-68
2023/09/25 12:36:53;;;;;;;15.50;15.00;;;32.20;80.00;;;;;;5079728;28;20459;-68